sensor_id;sensor_type;location;lat;lon;timestamp;pressure;altitude;pressure_sealevel;temperature;humidity
35806;BME280;21925;44.608;11.580;2023-05-08T00:00:58;101617.16;;;19.69;100.00
35806;BME280;21925;44.608;11.580;2023-05-08T00:03:24;101643.69;;;19.53;100.00
35806;BME280;21925;44.608;11.580;2023-05-08T00:05:50;101621.09;;;19.61;100.00
35806;BME280;21925;44.608;11.580;2023-05-08T00:08:16;101642.44;;;19.47;100.00
35806;BME280;21925;44.608;11.580;2023-05-08T00:10:43;101646.22;;;19.25;100.00
35806;BME280;21925;44.608;11.580;2023-05-08T00:13:09;101631.38;;;18.74;100.00
35806;BME280;21925;44.608;11.580;2023-05-08T00:15:38;101662.47;;;18.87;100.00
35806;BME280;21925;44.608;11.580;2023-05-08T00:18:07;101663.72;;;19.25;100.00
35806;BME280;21925;44.608;11.580;2023-05-08T00:20:33;101665.28;;;18.90;100.00
35806;BME280;21925;44.608;11.580;2023-05-08T00:22:59;101658.44;;;18.48;100.00
35806;BME280;21925;44.608;11.580;2023-05-08T00:25:26;101666.16;;;18.61;100.00
35806;BME280;21925;44.608;11.580;2023-05-08T00:27:53;101674.09;;;18.63;100.00
35806;BME280;21925;44.608;11.580;2023-05-08T00:30:18;101663.47;;;19.05;100.00
35806;BME280;21925;44.608;11.580;2023-05-08T00:32:44;101673.91;;;19.11;100.00
35806;BME280;21925;44.608;11.580;2023-05-08T00:35:11;101673.97;;;19.18;100.00
35806;BME280;21925;44.608;11.580;2023-05-08T00:37:37;101665.63;;;19.18;100.00
35806;BME280;21925;44.608;11.580;2023-05-08T00:40:06;101680.31;;;19.58;100.00
35806;BME280;21925;44.608;11.580;2023-05-08T00:42:33;101678.69;;;19.57;100.00
35806;BME280;21925;44.608;11.580;2023-05-08T00:44:59;101676.66;;;19.51;100.00
35806;BME280;21925;44.608;11.580;2023-05-08T00:47:29;101651.03;;;19.28;100.00
35806;BME280;21925;44.608;11.580;2023-05-08T00:49:57;101663.91;;;19.50;100.00
35806;BME280;21925;44.608;11.580;2023-05-08T00:52:24;101662.66;;;19.40;100.00
35806;BME280;21925;44.608;11.580;2023-05-08T00:54:51;101659.13;;;19.47;100.00
35806;BME280;21925;44.608;11.580;2023-05-08T00:57:18;101651.22;;;19.52;100.00
35806;BME280;21925;44.608;11.580;2023-05-08T00:59:45;101650.75;;;19.94;100.00
35806;BME280;21925;44.608;11.580;2023-05-08T01:02:13;101638.78;;;19.93;100.00
35806;BME280;21925;44.608;11.580;2023-05-08T01:04:41;101649.22;;;20.00;100.00
35806;BME280;21925;44.608;11.580;2023-05-08T01:07:10;101653.19;;;20.02;100.00
35806;BME280;21925;44.608;11.580;2023-05-08T01:09:37;101655.16;;;19.95;100.00
35806;BME280;21925;44.608;11.580;2023-05-08T01:14:59;101656.50;;;20.21;100.00
35806;BME280;21925;44.608;11.580;2023-05-08T01:17:56;101661.22;;;20.10;100.00
35806;BME280;21925;44.608;11.580;2023-05-08T01:20:38;101666.00;;;20.13;100.00
35806;BME280;21925;44.608;11.580;2023-05-08T01:32:21;101656.69;;;20.67;100.00
35806;BME280;21925;44.608;11.580;2023-05-08T01:35:08;101669.44;;;20.71;100.00
35806;BME280;21925;44.608;11.580;2023-05-08T01:37:56;101671.47;;;20.74;100.00
35806;BME280;21925;44.608;11.580;2023-05-08T01:43:32;101676.75;;;21.07;100.00
35806;BME280;21925;44.608;11.580;2023-05-08T01:46:05;101680.34;;;21.11;100.00
35806;BME280;21925;44.608;11.580;2023-05-08T01:48:40;101683.13;;;21.14;100.00
35806;BME280;21925;44.608;11.580;2023-05-08T01:51:17;101676.78;;;21.21;100.00
35806;BME280;21925;44.608;11.580;2023-05-08T01:53:54;101689.53;;;21.15;100.00
35806;BME280;21925;44.608;11.580;2023-05-08T01:56:23;101696.72;;;21.16;100.00
35806;BME280;21925;44.608;11.580;2023-05-08T01:58:53;101702.69;;;21.25;100.00
35806;BME280;21925;44.608;11.580;2023-05-08T02:01:22;101694.34;;;21.32;100.00
35806;BME280;21925;44.608;11.580;2023-05-08T02:03:51;101692.75;;;21.52;100.00
35806;BME280;21925;44.608;11.580;2023-05-08T02:06:19;101700.78;;;21.64;100.00
35806;BME280;21925;44.608;11.580;2023-05-08T02:08:47;101698.38;;;21.62;100.00
35806;BME280;21925;44.608;11.580;2023-05-08T02:11:15;101691.97;;;21.51;100.00
35806;BME280;21925;44.608;11.580;2023-05-08T02:13:43;101693.94;;;21.44;100.00
35806;BME280;21925;44.608;11.580;2023-05-08T02:16:12;101716.72;;;21.63;100.00
35806;BME280;21925;44.608;11.580;2023-05-08T02:18:43;101713.53;;;21.65;100.00
35806;BME280;21925;44.608;11.580;2023-05-08T02:21:13;101719.88;;;21.48;100.00
35806;BME280;21925;44.608;11.580;2023-05-08T02:23:42;101719.47;;;21.39;100.00
35806;BME280;21925;44.608;11.580;2023-05-08T02:26:10;101719.81;;;21.27;100.00
35806;BME280;21925;44.608;11.580;2023-05-08T02:28:37;101722.69;;;21.58;100.00
35806;BME280;21925;44.608;11.580;2023-05-08T02:31:05;101714.31;;;21.55;100.00
35806;BME280;21925;44.608;11.580;2023-05-08T02:33:33;101717.13;;;21.68;100.00
35806;BME280;21925;44.608;11.580;2023-05-08T02:36:01;101719.91;;;21.68;100.00
35806;BME280;21925;44.608;11.580;2023-05-08T02:38:28;101723.09;;;21.88;100.00
35806;BME280;21925;44.608;11.580;2023-05-08T02:40:59;101723.09;;;21.91;100.00
35806;BME280;21925;44.608;11.580;2023-05-08T02:43:27;101732.66;;;21.76;100.00
35806;BME280;21925;44.608;11.580;2023-05-08T02:48:35;101713.53;;;21.71;100.00
35806;BME280;21925;44.608;11.580;2023-05-08T02:51:24;101726.31;;;21.79;100.00
35806;BME280;21925;44.608;11.580;2023-05-08T02:56:49;101729.47;;;21.61;100.00
35806;BME280;21925;44.608;11.580;2023-05-08T02:59:41;101721.44;;;21.35;100.00
35806;BME280;21925;44.608;11.580;2023-05-08T03:02:14;101721.41;;;21.24;100.00
35806;BME280;21925;44.608;11.580;2023-05-08T03:05:04;101712.63;;;21.08;100.00
35806;BME280;21925;44.608;11.580;2023-05-08T03:07:35;101705.25;;;20.66;100.00
35806;BME280;21925;44.608;11.580;2023-05-08T03:10:05;101720.31;;;20.47;100.00
35806;BME280;21925;44.608;11.580;2023-05-08T03:12:39;101713.16;;;20.50;100.00
35806;BME280;21925;44.608;11.580;2023-05-08T03:15:22;101700.28;;;20.24;100.00
35806;BME280;21925;44.608;11.580;2023-05-08T03:17:53;101709.06;;;20.26;100.00
35806;BME280;21925;44.608;11.580;2023-05-08T03:20:21;101726.50;;;20.16;100.00
35806;BME280;21925;44.608;11.580;2023-05-08T03:22:49;101719.28;;;20.08;100.00
35806;BME280;21925;44.608;11.580;2023-05-08T03:25:19;101703.19;;;19.88;100.00
35806;BME280;21925;44.608;11.580;2023-05-08T03:27:47;101716.13;;;20.13;100.00
35806;BME280;21925;44.608;11.580;2023-05-08T03:30:14;101700.72;;;19.80;100.00
35806;BME280;21925;44.608;11.580;2023-05-08T03:32:45;101722.03;;;20.05;100.00
35806;BME280;21925;44.608;11.580;2023-05-08T03:35:13;101731.06;;;19.92;100.00
35806;BME280;21925;44.608;11.580;2023-05-08T03:37:40;101722.41;;;20.03;100.00
35806;BME280;21925;44.608;11.580;2023-05-08T03:40:08;101735.19;;;20.11;100.00
35806;BME280;21925;44.608;11.580;2023-05-08T03:42:35;101732.78;;;20.06;100.00
35806;BME280;21925;44.608;11.580;2023-05-08T03:45:02;101740.31;;;20.03;100.00
35806;BME280;21925;44.608;11.580;2023-05-08T03:47:28;101734.81;;;20.13;100.00
35806;BME280;21925;44.608;11.580;2023-05-08T03:49:56;101741.41;;;20.45;100.00
35806;BME280;21925;44.608;11.580;2023-05-08T03:52:24;101729.34;;;20.30;100.00
35806;BME280;21925;44.608;11.580;2023-05-08T03:54:51;101740.22;;;20.49;100.00
35806;BME280;21925;44.608;11.580;2023-05-08T03:57:17;101743.69;;;20.29;100.00
35806;BME280;21925;44.608;11.580;2023-05-08T03:59:51;101753.41;;;19.99;100.00
35806;BME280;21925;44.608;11.580;2023-05-08T04:02:43;101745.09;;;20.05;100.00
35806;BME280;21925;44.608;11.580;2023-05-08T04:05:23;101749.44;;;20.00;100.00
35806;BME280;21925;44.608;11.580;2023-05-08T04:08:14;101751.63;;;19.37;100.00
35806;BME280;21925;44.608;11.580;2023-05-08T04:10:53;101755.03;;;19.20;100.00
35806;BME280;21925;44.608;11.580;2023-05-08T04:13:29;101766.44;;;19.48;100.00
35806;BME280;21925;44.608;11.580;2023-05-08T04:16:06;101764.81;;;19.87;100.00
35806;BME280;21925;44.608;11.580;2023-05-08T04:18:36;101774.69;;;19.81;100.00
35806;BME280;21925;44.608;11.580;2023-05-08T04:21:10;101766.66;;;19.69;100.00
35806;BME280;21925;44.608;11.580;2023-05-08T04:23:39;101753.28;;;19.85;100.00
35806;BME280;21925;44.608;11.580;2023-05-08T04:26:07;101745.44;;;19.97;100.00
35806;BME280;21925;44.608;11.580;2023-05-08T04:28:35;101768.31;;;20.23;100.00
35806;BME280;21925;44.608;11.580;2023-05-08T04:31:02;101770.03;;;20.45;100.00
35806;BME280;21925;44.608;11.580;2023-05-08T04:33:30;101776.72;;;20.30;100.00
35806;BME280;21925;44.608;11.580;2023-05-08T04:36:02;101779.06;;;20.28;100.00
35806;BME280;21925;44.608;11.580;2023-05-08T04:38:30;101781.56;;;20.40;100.00
35806;BME280;21925;44.608;11.580;2023-05-08T04:40:56;101785.94;;;20.41;100.00
35806;BME280;21925;44.608;11.580;2023-05-08T04:43:22;101801.59;;;20.63;100.00
35806;BME280;21925;44.608;11.580;2023-05-08T04:45:48;101772.56;;;20.68;100.00
35806;BME280;21925;44.608;11.580;2023-05-08T04:48:14;101804.81;;;20.69;100.00
35806;BME280;21925;44.608;11.580;2023-05-08T04:50:40;101794.47;;;20.69;100.00
35806;BME280;21925;44.608;11.580;2023-05-08T04:53:06;101814.53;;;20.92;100.00
35806;BME280;21925;44.608;11.580;2023-05-08T04:55:32;101809.31;;;20.26;100.00
35806;BME280;21925;44.608;11.580;2023-05-08T04:57:58;101814.56;;;20.38;100.00
35806;BME280;21925;44.608;11.580;2023-05-08T05:00:24;101742.72;;;19.61;100.00
35806;BME280;21925;44.608;11.580;2023-05-08T05:02:51;101819.53;;;19.69;100.00
35806;BME280;21925;44.608;11.580;2023-05-08T05:05:17;101814.13;;;19.86;100.00
35806;BME280;21925;44.608;11.580;2023-05-08T05:07:43;101800.75;;;19.62;100.00
35806;BME280;21925;44.608;11.580;2023-05-08T05:10:10;101818.41;;;19.77;100.00
35806;BME280;21925;44.608;11.580;2023-05-08T05:12:36;101818.81;;;20.18;100.00
35806;BME280;21925;44.608;11.580;2023-05-08T05:15:02;101827.50;;;20.13;100.00
35806;BME280;21925;44.608;11.580;2023-05-08T05:17:32;101830.31;;;20.17;100.00
35806;BME280;21925;44.608;11.580;2023-05-08T05:19:59;101830.16;;;20.46;100.00
35806;BME280;21925;44.608;11.580;2023-05-08T05:22:25;101839.81;;;20.59;100.00
35806;BME280;21925;44.608;11.580;2023-05-08T05:24:52;101837.38;;;20.54;100.00
35806;BME280;21925;44.608;11.580;2023-05-08T05:27:18;101833.41;;;20.59;100.00
35806;BME280;21925;44.608;11.580;2023-05-08T05:29:44;101822.22;;;20.48;100.00
35806;BME280;21925;44.608;11.580;2023-05-08T05:32:10;101834.06;;;20.38;100.00
35806;BME280;21925;44.608;11.580;2023-05-08T05:34:37;101823.31;;;20.33;100.00
35806;BME280;21925;44.608;11.580;2023-05-08T05:37:03;101839.44;;;20.10;100.00
35806;BME280;21925;44.608;11.580;2023-05-08T05:39:29;101809.66;;;20.21;100.00
35806;BME280;21925;44.608;11.580;2023-05-08T05:41:55;101839.84;;;20.63;100.00
35806;BME280;21925;44.608;11.580;2023-05-08T05:44:21;101840.38;;;21.84;100.00
35806;BME280;21925;44.608;11.580;2023-05-08T05:46:47;101838.50;;;21.00;100.00
35806;BME280;21925;44.608;11.580;2023-05-08T05:49:13;101844.78;;;20.36;100.00
35806;BME280;21925;44.608;11.580;2023-05-08T05:51:39;101846.16;;;20.56;100.00
35806;BME280;21925;44.608;11.580;2023-05-08T05:54:06;101843.78;;;20.58;100.00
35806;BME280;21925;44.608;11.580;2023-05-08T05:56:32;101847.56;;;20.83;100.00
35806;BME280;21925;44.608;11.580;2023-05-08T05:58:58;101852.25;;;20.76;100.00
35806;BME280;21925;44.608;11.580;2023-05-08T06:01:25;101856.44;;;20.49;100.00
35806;BME280;21925;44.608;11.580;2023-05-08T06:03:53;101859.38;;;20.66;100.00
35806;BME280;21925;44.608;11.580;2023-05-08T06:06:19;101862.16;;;20.66;100.00
35806;BME280;21925;44.608;11.580;2023-05-08T06:08:46;101852.59;;;20.67;100.00
35806;BME280;21925;44.608;11.580;2023-05-08T06:11:13;101845.78;;;20.61;100.00
35806;BME280;21925;44.608;11.580;2023-05-08T06:13:39;101859.41;;;20.73;100.00
35806;BME280;21925;44.608;11.580;2023-05-08T06:16:06;101847.91;;;20.78;100.00
35806;BME280;21925;44.608;11.580;2023-05-08T06:18:33;101843.44;;;20.70;100.00
35806;BME280;21925;44.608;11.580;2023-05-08T06:20:59;101855.00;;;20.72;100.00
35806;BME280;21925;44.608;11.580;2023-05-08T06:23:26;101864.59;;;20.75;100.00
35806;BME280;21925;44.608;11.580;2023-05-08T06:25:52;101840.63;;;20.63;100.00
35806;BME280;21925;44.608;11.580;2023-05-08T06:28:18;101861.84;;;20.78;100.00
35806;BME280;21925;44.608;11.580;2023-05-08T06:30:44;101859.28;;;21.16;100.00
35806;BME280;21925;44.608;11.580;2023-05-08T06:33:10;101848.97;;;21.27;100.00
35806;BME280;21925;44.608;11.580;2023-05-08T06:35:37;101849.72;;;21.17;100.00
35806;BME280;21925;44.608;11.580;2023-05-08T06:38:03;101857.78;;;21.40;100.00
35806;BME280;21925;44.608;11.580;2023-05-08T06:40:29;101853.13;;;21.65;100.00
35806;BME280;21925;44.608;11.580;2023-05-08T06:42:56;101884.97;;;21.57;100.00
35806;BME280;21925;44.608;11.580;2023-05-08T06:45:22;101878.94;;;21.48;100.00
35806;BME280;21925;44.608;11.580;2023-05-08T06:47:48;101878.06;;;21.30;100.00
35806;BME280;21925;44.608;11.580;2023-05-08T06:50:14;101897.66;;;21.44;100.00
35806;BME280;21925;44.608;11.580;2023-05-08T06:52:40;101875.41;;;21.61;100.00
35806;BME280;21925;44.608;11.580;2023-05-08T06:55:07;101884.91;;;21.46;100.00
35806;BME280;21925;44.608;11.580;2023-05-08T06:57:33;101863.38;;;21.47;100.00
35806;BME280;21925;44.608;11.580;2023-05-08T06:59:59;101879.34;;;21.53;100.00
35806;BME280;21925;44.608;11.580;2023-05-08T07:02:25;101870.94;;;21.43;100.00
35806;BME280;21925;44.608;11.580;2023-05-08T07:04:51;101869.50;;;21.83;100.00
35806;BME280;21925;44.608;11.580;2023-05-08T07:07:17;101863.53;;;21.99;100.00
35806;BME280;21925;44.608;11.580;2023-05-08T07:09:43;101876.72;;;22.19;100.00
35806;BME280;21925;44.608;11.580;2023-05-08T07:12:09;101861.16;;;22.18;100.00
35806;BME280;21925;44.608;11.580;2023-05-08T07:14:35;101887.09;;;22.26;100.00
35806;BME280;21925;44.608;11.580;2023-05-08T07:17:03;101881.09;;;22.13;100.00
35806;BME280;21925;44.608;11.580;2023-05-08T07:19:35;101881.06;;;21.85;100.00
35806;BME280;21925;44.608;11.580;2023-05-08T07:22:01;101885.06;;;22.02;100.00
35806;BME280;21925;44.608;11.580;2023-05-08T07:24:27;101883.03;;;21.85;100.00
35806;BME280;21925;44.608;11.580;2023-05-08T07:26:53;101889.00;;;21.73;100.00
35806;BME280;21925;44.608;11.580;2023-05-08T07:29:19;101891.38;;;21.67;100.00
35806;BME280;21925;44.608;11.580;2023-05-08T07:31:45;101897.84;;;22.06;100.00
35806;BME280;21925;44.608;11.580;2023-05-08T07:34:15;101888.69;;;22.09;100.00
35806;BME280;21925;44.608;11.580;2023-05-08T07:36:41;101888.28;;;22.18;100.00
35806;BME280;21925;44.608;11.580;2023-05-08T07:39:08;101884.34;;;22.40;100.00
35806;BME280;21925;44.608;11.580;2023-05-08T07:41:34;101882.72;;;22.63;100.00
35806;BME280;21925;44.608;11.580;2023-05-08T07:44:01;101886.72;;;22.58;99.34
35806;BME280;21925;44.608;11.580;2023-05-08T07:46:27;101897.78;;;23.35;96.68
35806;BME280;21925;44.608;11.580;2023-05-08T07:48:53;101894.56;;;23.36;92.60
35806;BME280;21925;44.608;11.580;2023-05-08T07:51:20;101883.31;;;24.15;92.17
35806;BME280;21925;44.608;11.580;2023-05-08T07:53:46;101871.19;;;23.81;89.06
35806;BME280;21925;44.608;11.580;2023-05-08T07:56:13;101883.19;;;23.71;90.92
35806;BME280;21925;44.608;11.580;2023-05-08T07:58:42;101876.47;;;23.58;83.96
35806;BME280;21925;44.608;11.580;2023-05-08T08:01:10;101897.91;;;23.93;85.14
35806;BME280;21925;44.608;11.580;2023-05-08T08:03:39;101874.53;;;23.48;84.27
35806;BME280;21925;44.608;11.580;2023-05-08T08:06:05;101894.72;;;23.91;85.67
35806;BME280;21925;44.608;11.580;2023-05-08T08:08:31;101893.69;;;24.21;84.29
35806;BME280;21925;44.608;11.580;2023-05-08T08:10:57;101901.28;;;24.24;81.29
35806;BME280;21925;44.608;11.580;2023-05-08T08:13:23;101899.97;;;24.87;80.59
35806;BME280;21925;44.608;11.580;2023-05-08T08:15:49;101897.97;;;24.84;76.05
35806;BME280;21925;44.608;11.580;2023-05-08T08:18:16;101901.31;;;25.45;76.16
35806;BME280;21925;44.608;11.580;2023-05-08T08:20:42;101898.72;;;25.91;74.01
35806;BME280;21925;44.608;11.580;2023-05-08T08:23:08;101900.56;;;26.01;70.28
35806;BME280;21925;44.608;11.580;2023-05-08T08:25:34;101884.72;;;25.87;71.82
35806;BME280;21925;44.608;11.580;2023-05-08T08:28:01;101901.38;;;25.72;72.04
35806;BME280;21925;44.608;11.580;2023-05-08T08:30:27;101906.38;;;25.57;71.40
35806;BME280;21925;44.608;11.580;2023-05-08T08:32:56;101911.22;;;25.86;70.95
35806;BME280;21925;44.608;11.580;2023-05-08T08:35:31;101893.09;;;25.91;70.67
35806;BME280;21925;44.608;11.580;2023-05-08T08:37:57;101904.22;;;26.24;69.65
35806;BME280;21925;44.608;11.580;2023-05-08T08:40:23;101910.78;;;26.44;68.97
35806;BME280;21925;44.608;11.580;2023-05-08T08:42:49;101912.16;;;26.33;68.34
35806;BME280;21925;44.608;11.580;2023-05-08T08:45:15;101911.38;;;26.29;66.66
35806;BME280;21925;44.608;11.580;2023-05-08T08:47:43;101905.63;;;26.13;66.94
35806;BME280;21925;44.608;11.580;2023-05-08T08:50:12;101912.00;;;26.17;66.98
35806;BME280;21925;44.608;11.580;2023-05-08T08:53:15;101910.38;;;25.89;65.95
35806;BME280;21925;44.608;11.580;2023-05-08T08:55:43;101897.75;;;26.54;67.68
35806;BME280;21925;44.608;11.580;2023-05-08T09:00:59;101896.28;;;26.46;65.99
35806;BME280;21925;44.608;11.580;2023-05-08T09:03:26;101898.34;;;25.89;66.91
35806;BME280;21925;44.608;11.580;2023-05-08T09:05:53;101894.38;;;26.13;69.09
35806;BME280;21925;44.608;11.580;2023-05-08T09:08:20;101902.09;;;26.32;67.60
35806;BME280;21925;44.608;11.580;2023-05-08T09:10:46;101901.75;;;26.75;66.55
35806;BME280;21925;44.608;11.580;2023-05-08T09:13:12;101891.31;;;27.57;65.48
35806;BME280;21925;44.608;11.580;2023-05-08T09:15:39;101900.84;;;27.43;64.34
35806;BME280;21925;44.608;11.580;2023-05-08T09:18:05;101882.31;;;27.46;63.30
35806;BME280;21925;44.608;11.580;2023-05-08T09:20:31;101892.91;;;28.44;63.94
35806;BME280;21925;44.608;11.580;2023-05-08T09:22:59;101892.78;;;28.16;62.85
35806;BME280;21925;44.608;11.580;2023-05-08T09:25:40;101895.75;;;29.33;58.55
35806;BME280;21925;44.608;11.580;2023-05-08T09:28:26;101890.38;;;29.38;60.18
35806;BME280;21925;44.608;11.580;2023-05-08T09:30:54;101900.47;;;29.23;60.80
35806;BME280;21925;44.608;11.580;2023-05-08T09:33:22;101876.19;;;29.54;61.32
35806;BME280;21925;44.608;11.580;2023-05-08T09:35:49;101879.56;;;30.02;59.46
35806;BME280;21925;44.608;11.580;2023-05-08T09:38:35;101878.38;;;29.88;57.80
35806;BME280;21925;44.608;11.580;2023-05-08T09:41:13;101895.72;;;29.49;56.74
35806;BME280;21925;44.608;11.580;2023-05-08T09:43:42;101894.88;;;29.77;57.34
35806;BME280;21925;44.608;11.580;2023-05-08T09:46:25;101916.03;;;30.84;58.94
35806;BME280;21925;44.608;11.580;2023-05-08T09:49:00;101919.72;;;31.06;57.52
35806;BME280;21925;44.608;11.580;2023-05-08T09:51:28;101910.41;;;30.72;56.69
35806;BME280;21925;44.608;11.580;2023-05-08T09:53:56;101899.75;;;30.63;55.40
35806;BME280;21925;44.608;11.580;2023-05-08T09:58:57;101904.06;;;30.55;56.11
35806;BME280;21925;44.608;11.580;2023-05-08T10:01:29;101906.25;;;30.26;54.26
35806;BME280;21925;44.608;11.580;2023-05-08T10:03:55;101916.09;;;30.59;53.17
35806;BME280;21925;44.608;11.580;2023-05-08T10:06:21;101912.31;;;31.63;55.83
35806;BME280;21925;44.608;11.580;2023-05-08T10:08:47;101922.09;;;31.93;55.38
35806;BME280;21925;44.608;11.580;2023-05-08T10:11:18;101921.53;;;31.76;53.26
35806;BME280;21925;44.608;11.580;2023-05-08T10:13:46;101907.25;;;32.19;55.18
35806;BME280;21925;44.608;11.580;2023-05-08T10:16:17;101918.09;;;32.12;53.72
35806;BME280;21925;44.608;11.580;2023-05-08T10:18:47;101920.34;;;31.65;52.78
35806;BME280;21925;44.608;11.580;2023-05-08T10:21:14;101921.31;;;32.23;53.44
35806;BME280;21925;44.608;11.580;2023-05-08T10:23:41;101932.44;;;32.08;51.93
35806;BME280;21925;44.608;11.580;2023-05-08T10:26:13;101933.50;;;31.16;52.90
35806;BME280;21925;44.608;11.580;2023-05-08T10:29:07;101938.31;;;31.92;51.25
35806;BME280;21925;44.608;11.580;2023-05-08T10:31:39;101924.44;;;32.55;54.47
35806;BME280;21925;44.608;11.580;2023-05-08T10:34:13;101912.16;;;32.19;51.88
35806;BME280;21925;44.608;11.580;2023-05-08T10:36:43;101916.59;;;32.29;52.33
35806;BME280;21925;44.608;11.580;2023-05-08T10:39:13;101920.78;;;31.85;49.41
35806;BME280;21925;44.608;11.580;2023-05-08T10:41:40;101897.19;;;32.27;49.75
35806;BME280;21925;44.608;11.580;2023-05-08T10:44:08;101909.00;;;32.74;50.83
35806;BME280;21925;44.608;11.580;2023-05-08T10:46:52;101911.56;;;32.90;49.04
35806;BME280;21925;44.608;11.580;2023-05-08T10:49:22;101905.91;;;33.08;51.48
35806;BME280;21925;44.608;11.580;2023-05-08T10:52:15;101896.88;;;32.91;48.57
35806;BME280;21925;44.608;11.580;2023-05-08T10:57:29;101887.25;;;32.98;50.89
35806;BME280;21925;44.608;11.580;2023-05-08T10:59:56;101891.97;;;32.92;49.29
35806;BME280;21925;44.608;11.580;2023-05-08T11:02:27;101870.19;;;32.89;49.03
35806;BME280;21925;44.608;11.580;2023-05-08T11:04:55;101880.34;;;33.17;50.03
35806;BME280;21925;44.608;11.580;2023-05-08T11:07:29;101878.34;;;33.76;49.91
35806;BME280;21925;44.608;11.580;2023-05-08T11:10:16;101864.31;;;33.64;49.24
35806;BME280;21925;44.608;11.580;2023-05-08T11:12:47;101869.78;;;32.42;47.35
35806;BME280;21925;44.608;11.580;2023-05-08T11:15:15;101858.69;;;31.87;48.88
35806;BME280;21925;44.608;11.580;2023-05-08T11:17:52;101873.84;;;32.32;49.95
35806;BME280;21925;44.608;11.580;2023-05-08T11:20:22;101876.31;;;32.60;50.22
35806;BME280;21925;44.608;11.580;2023-05-08T11:22:49;101863.09;;;32.66;50.25
35806;BME280;21925;44.608;11.580;2023-05-08T11:25:15;101875.81;;;32.53;49.72
35806;BME280;21925;44.608;11.580;2023-05-08T11:30:18;101856.28;;;32.64;49.16
35806;BME280;21925;44.608;11.580;2023-05-08T11:38:37;101860.97;;;30.85;51.04
35806;BME280;21925;44.608;11.580;2023-05-08T11:46:02;101859.44;;;32.57;49.23
35806;BME280;21925;44.608;11.580;2023-05-08T11:48:30;101853.16;;;32.62;50.22
35806;BME280;21925;44.608;11.580;2023-05-08T11:50:58;101860.97;;;32.01;49.74
35806;BME280;21925;44.608;11.580;2023-05-08T11:53:24;101840.97;;;32.04;49.33
35806;BME280;21925;44.608;11.580;2023-05-08T11:55:54;101867.84;;;31.91;50.49
35806;BME280;21925;44.608;11.580;2023-05-08T11:58:23;101834.47;;;32.43;50.12
35806;BME280;21925;44.608;11.580;2023-05-08T12:00:49;101860.41;;;33.34;50.37
35806;BME280;21925;44.608;11.580;2023-05-08T12:03:17;101857.81;;;33.72;47.44
35806;BME280;21925;44.608;11.580;2023-05-08T12:05:44;101854.25;;;33.27;47.97
35806;BME280;21925;44.608;11.580;2023-05-08T12:08:12;101844.78;;;32.58;49.43
35806;BME280;21925;44.608;11.580;2023-05-08T12:10:51;101856.72;;;32.05;49.47
35806;BME280;21925;44.608;11.580;2023-05-08T12:13:19;101859.53;;;31.96;49.54
35806;BME280;21925;44.608;11.580;2023-05-08T12:15:47;101860.59;;;31.90;51.56
35806;BME280;21925;44.608;11.580;2023-05-08T12:18:14;101850.69;;;32.51;49.82
35806;BME280;21925;44.608;11.580;2023-05-08T12:20:41;101847.13;;;32.60;49.21
35806;BME280;21925;44.608;11.580;2023-05-08T12:23:07;101854.69;;;32.54;47.93
35806;BME280;21925;44.608;11.580;2023-05-08T12:25:38;101847.16;;;32.78;46.90
35806;BME280;21925;44.608;11.580;2023-05-08T12:28:11;101847.13;;;32.96;50.36
35806;BME280;21925;44.608;11.580;2023-05-08T12:30:36;101836.72;;;32.93;50.07
35806;BME280;21925;44.608;11.580;2023-05-08T12:33:03;101842.41;;;32.84;47.78
35806;BME280;21925;44.608;11.580;2023-05-08T12:35:30;101853.94;;;33.25;47.95
35806;BME280;21925;44.608;11.580;2023-05-08T12:38:00;101844.28;;;33.40;47.17
35806;BME280;21925;44.608;11.580;2023-05-08T12:40:30;101855.97;;;33.33;45.68
35806;BME280;21925;44.608;11.580;2023-05-08T12:42:56;101847.47;;;33.33;47.79
35806;BME280;21925;44.608;11.580;2023-05-08T12:45:26;101851.56;;;32.70;46.91
35806;BME280;21925;44.608;11.580;2023-05-08T12:47:58;101853.00;;;33.19;47.72
35806;BME280;21925;44.608;11.580;2023-05-08T12:50:24;101862.47;;;32.23;48.15
35806;BME280;21925;44.608;11.580;2023-05-08T12:52:51;101853.97;;;32.32;48.78
35806;BME280;21925;44.608;11.580;2023-05-08T12:55:24;101857.25;;;32.97;50.69
35806;BME280;21925;44.608;11.580;2023-05-08T12:58:10;101855.06;;;33.10;48.11
35806;BME280;21925;44.608;11.580;2023-05-08T13:03:22;101831.34;;;32.59;46.91
35806;BME280;21925;44.608;11.580;2023-05-08T13:05:52;101838.53;;;31.55;48.64
35806;BME280;21925;44.608;11.580;2023-05-08T13:08:19;101844.44;;;31.48;49.56
35806;BME280;21925;44.608;11.580;2023-05-08T13:10:53;101849.38;;;30.92;48.27
35806;BME280;21925;44.608;11.580;2023-05-08T13:13:21;101847.75;;;31.03;47.62
35806;BME280;21925;44.608;11.580;2023-05-08T13:15:48;101838.94;;;30.89;47.36
35806;BME280;21925;44.608;11.580;2023-05-08T13:18:14;101822.97;;;31.38;48.79
35806;BME280;21925;44.608;11.580;2023-05-08T13:20:41;101793.06;;;31.15;49.04
35806;BME280;21925;44.608;11.580;2023-05-08T13:23:08;101828.22;;;31.27;49.45
35806;BME280;21925;44.608;11.580;2023-05-08T13:25:38;101814.41;;;31.07;48.68
35806;BME280;21925;44.608;11.580;2023-05-08T13:28:05;101830.19;;;30.96;49.47
35806;BME280;21925;44.608;11.580;2023-05-08T13:30:32;101821.16;;;31.83;51.19